Startpagina
METAR-TAF:

METAR-TAF

Vliegvelden :

Luchthaven Schiphol

Amsterdam, Nederland

breedte: 52-18N, lengte: 004-46E, hoogte: -4 m

Actueel weer

Dit bericht is 23 minuten geleden gemaakt, om 22:55 UTC
Wind 4 kt uit het zuidzuidoosten
Temperatuur 5°C
Vochtigheid 93%
Druk 1023 hPa
Zicht 10 km of meer
geen wolken onder 1500 m en geen cumulonimbus

METAR: EHAM 162255Z 15004KT CAVOK 05/04 Q1023 BECMG 7000

Tijdstip: 00:18 (23:18 UTC)

Verwachting

Dit bericht is 6 uur en het 50 minuten geleden gemaakt, om 16:28 UTC
Verwachting geldig van 16 om 18 UTC tot 17 om 24 UTC
Wind 6 kt uit het zuiden
Zicht 10 km of meer
geen wolken onder 1500 m en geen cumulonimbus
Kans 30% :
Tijdelijke
van 17 om 02 UTC tot 17 om 08 UTC
Zicht: 4000 m
nevel
Wijzigt naar
van 17 om 10 UTC tot 17 om 12 UTC
Wind 13 kt uit het zuiden
Wijzigt naar
van 17 om 15 UTC tot 17 om 18 UTC
Wind 7 kt uit het zuiden

TAF: EHAM 161628Z 1618/1724 18006KT CAVOK PROB30 TEMPO 1702/1708 4000 BR BECMG 1710/1712 18013KT BECMG 1715/1718 18007KT

Waarnemingen en weersverwachtingen van meer dan 4000 vliegvelden (METAR en TAF).

De beschikbare stations zijn de gele en rode punten op de kaart.

Ga met uw muis naar het station om de naam te zien.

Klik dan om waarnemingen en weersverwachtingen te zien.

kaart wijzigen: klik op de groene knoppen met een zwart kruis om in te zoomen, op de groene knop met een streepje om uit te zoomen of op de groene pijlen voor aangrenzende kaarten.


METAR-TAF: